Flight Track Log - Related Links

Times and Time Zones

All times are in EDT time to prevent confusion due to time zone crossing. See the SKP53 flight status page for this flight to view local times or setup timezone preferences in your user account.

Time Position Orientation Groundspeed Altitude Reporting Facility
EDT Latitude Longitude Course Direction KTS MPH feet Rate Location/Type
Thu 11:28:42 PM -17.6528 141.2685 81° East 19,000  Level Aus ATC (Calculated)
Thu 11:28:59 PM -17.6639 141.2705 80° East 19,000 -23 Level Aus ATC (Calculated)
Thu 11:31:00 PM -17.6408 141.4070 80° East  Level FlightAware Approximate
Thu 11:31:59 PM -17.6303 141.4685 80° East 19,000  Level Aus ATC (Calculated)
Thu 11:32:00 PM -17.6293 141.4746 80° East  Level FlightAware Approximate
Thu 11:33:00 PM -17.6186 141.5373 80° East  Level FlightAware Approximate
Thu 11:34:00 PM -17.6070 141.6049 80° East  Level FlightAware Approximate
Thu 11:35:00 PM -17.5955 141.6725 80° East  Level FlightAware Approximate
Thu 11:36:00 PM -17.5839 141.7401 80° East  Level FlightAware Approximate
Thu 11:37:00 PM -17.5723 141.8077 80° East  Level FlightAware Approximate
Thu 11:38:00 PM -17.5607 141.8753 80° East  Level FlightAware Approximate
Thu 11:39:00 PM -17.5490 141.9428 80° East  Level FlightAware Approximate
Thu 11:40:00 PM -17.5373 142.0104 80° East  Level FlightAware Approximate
Thu 11:41:00 PM -17.5257 142.0780 80° East  Level FlightAware Approximate
Thu 11:42:00 PM -17.5139 142.1455 80° East  Level FlightAware Approximate
Thu 11:43:00 PM -17.5022 142.2130 80° East  Level FlightAware Approximate
Thu 11:44:00 PM -17.4904 142.2806 80° East  Level FlightAware Approximate
Thu 11:45:00 PM -17.4786 142.3481 80° East  Level FlightAware Approximate
Thu 11:46:00 PM -17.4668 142.4156 80° East  Level FlightAware Approximate
Thu 11:46:01 PM -17.5217 142.0844 80° East 210 242 18,600  Level Aus ATC (RADAR)
Thu 11:46:51 PM -17.5142 142.1322 81° East 202 232 19,000 353 Climbing Aus ATC (RADAR)
Thu 11:47:26 PM -17.5100 142.1669 83° East 208 239 19,100 126 Climbing Aus ATC (RADAR)
Thu 11:48:26 PM -17.4987 142.2321 80° East 231 266 19,200 -43 Climbing Aus ATC (RADAR)
Thu 11:49:46 PM -17.4798 142.3243 78° East 250 288 19,000 -104 Descending Aus ATC (RADAR)
Thu 11:50:21 PM -17.4703 142.3657 76° East 252 290 19,000  Level Aus ATC (RADAR)
Thu 11:50:41 PM -17.4665 142.3894 81° East 249 287 19,000  Level Aus ATC (RADAR)
Thu 11:51:15 PM -17.4610 142.4314 82° East 250 288 19,000  Level Aus ATC (RADAR)
Thu 11:52:00 PM -17.4534 142.4846 82° East 249 287 19,000  Level Aus ATC (RADAR)
Thu 11:52:35 PM -17.4460 142.5262 79° East 250 288 19,000  Level Aus ATC (RADAR)
Thu 11:53:30 PM -17.4344 142.5911 79° East 249 287 19,000 38 Level Aus ATC (RADAR)
Thu 11:55:11 PM -17.4129 142.7091 79° East 249 287 19,100  Climbing Aus ATC (RADAR)
Thu 11:55:30 PM -17.4084 142.7328 79° East 250 288 19,000 -111 Descending Aus ATC (RADAR)
Thu 11:56:05 PM -17.4027 142.7746 82° East 250 288 19,000  Level Aus ATC (RADAR)
Thu 11:56:50 PM -17.3955 142.8286 82° East 252 290 19,000  Level Aus ATC (RADAR)
Thu 11:57:30 PM -17.3861 142.8757 78° East 250 288 19,000  Level Aus ATC (RADAR)
Thu 11:58:30 PM -17.3728 142.9462 79° East 249 287 19,000  Level Aus ATC (RADAR)
Thu 11:59:50 PM -17.3556 143.0411 79° East 250 288 19,000  Level Aus ATC (RADAR)
Fri 12:00:10 AM -17.3524 143.0649 82° East 249 287 19,000  Level Aus ATC (RADAR)
Fri 12:00:50 AM -17.3445 143.1126 80° East 250 288 19,000  Level Aus ATC (RADAR)
Fri 12:01:39 AM -17.3341 143.1724 80° East 253 291 19,000  Level Aus ATC (RADAR)
Fri 12:02:14 AM -17.3270 143.2139 80° East 250 288 19,000  Level Aus ATC (RADAR)
Fri 12:03:09 AM -17.3163 143.2798 80° East 252 290 19,000  Level Aus ATC (RADAR)
Fri 12:03:44 AM -17.3078 143.3213 78° East 252 290 19,000  Level Aus ATC (RADAR)
Fri 12:05:14 AM -17.2850 143.4277 77° East 251 289 19,000  Level Aus ATC (RADAR)
Fri 12:05:34 AM -17.2799 143.4517 78° East 253 291 19,000  Level Aus ATC (RADAR)
Fri 12:06:10 AM -17.2726 143.4935 80° East 251 289 19,000  Level Aus ATC (RADAR)
Fri 12:07:04 AM -17.2641 143.5597 82° East 251 289 19,000 64 Level Aus ATC (RADAR)
Fri 12:07:44 AM -17.2588 143.6077 83° East 250 288 19,100  Climbing Aus ATC (RADAR)
Fri 12:08:34 AM -17.2479 143.6674 79° East 252 290 19,000 -44 Descending Aus ATC (RADAR)
Fri 12:09:59 AM -17.2240 143.7679 76° East 252 290 19,000  Level Aus ATC (RADAR)
Fri 12:10:34 AM -17.2156 143.8092 78° East 249 287 19,000  Level Aus ATC (RADAR)
Fri 12:10:54 AM -17.2116 143.8333 80° East 251 289 19,000  Level Aus ATC (RADAR)
Fri 12:11:28 AM -17.2054 143.8755 81° East 252 290 19,000  Level Aus ATC (RADAR)
Fri 12:12:23 AM -17.1950 143.9415 81° East 252 290 19,000  Level Aus ATC (RADAR)
Fri 12:12:58 AM -17.1872 143.9830 79° East 250 288 19,000  Level Aus ATC (RADAR)
Fri 12:13:53 AM -17.1761 144.0491 80° East 251 289 19,000  Level Aus ATC (RADAR)
Fri 12:15:18 AM -17.1573 144.1506 79° East 252 290 19,000  Level Aus ATC (RADAR)
Fri 12:15:38 AM -17.1522 144.1742 77° East 251 289 19,000  Level Aus ATC (RADAR)
Fri 12:16:14 AM -17.1442 144.2161 79° East 252 290 19,000 67 Level Aus ATC (RADAR)
Fri 12:17:08 AM -17.1313 144.2814 78° East 251 289 19,100  Climbing Aus ATC (RADAR)
Fri 12:17:44 AM -17.1235 144.3233 79° East 252 290 19,000  Descending Aus ATC (RADAR)
Fri 12:18:38 AM -17.1123 144.3893 80° East 251 289 19,100  Climbing Aus ATC (RADAR)
Fri 12:19:48 AM -17.0955 144.4728 78° East 252 290 19,000 -60 Descending Aus ATC (RADAR)
Fri 12:20:18 AM -17.0888 144.5084 79° East 251 289 19,000  Level Aus ATC (RADAR)
Fri 12:20:38 AM -17.0830 144.5321 76° East 251 289 19,000  Level Aus ATC (RADAR)
Fri 12:21:13 AM -17.0745 144.5736 78° East 250 288 19,000  Level Aus ATC (RADAR)
Fri 12:22:09 AM -17.0620 144.6395 79° East 252 290 19,000  Level Aus ATC (RADAR)
Fri 12:22:47 AM -17.0535 144.6871 79° East 251 289 19,000  Level Aus ATC (RADAR)
Fri 12:23:43 AM -17.0405 144.7526 78° East 251 289 19,000  Level Aus ATC (RADAR)
Fri 12:24:47 AM -17.0269 144.8305 80° East 253 291 19,000  Level Aus ATC (RADAR)
Fri 12:25:17 AM -17.0203 144.8661 79° East 251 289 19,000  Level Aus ATC (RADAR)
Fri 12:25:37 AM -17.0161 144.8898 80° East 249 287 19,000  Level Aus ATC (RADAR)
Fri 12:26:12 AM -17.0087 144.9316 80° East 250 288 19,000  Level Aus ATC (RADAR)
Fri 12:27:07 AM -16.9971 144.9971 80° East 249 287 19,000  Level Aus ATC (RADAR)
Fri 12:27:47 AM -16.9879 145.0449 79° East 252 290 19,000 -467 Level Aus ATC (RADAR)
Fri 12:28:37 AM -16.9669 145.1035 69° East 262 302 18,300 -988 Descending Aus ATC (RADAR)
Fri 12:29:12 AM -16.9387 145.1429 53° Northeast 283 326 17,600 -1,582 Descending Aus ATC (RADAR)
Fri 12:30:27 AM -16.8796 145.2334 56° Northeast 302 348 15,400 -1,832 Descending Aus ATC (RADAR)
Fri 12:30:47 AM -16.8659 145.2598 62° Northeast 305 351 14,700 -2,100 Descending Aus ATC (RADAR)
Fri 12:31:27 AM -16.8381 145.3107 60° Northeast 298 343 13,300 -2,100 Descending Aus ATC (RADAR)
Fri 12:32:07 AM -16.8083 145.3594 57° Northeast 294 338 11,900 -1,950 Descending Aus ATC (RADAR)
Fri 12:32:47 AM -16.7792 145.4057 57° Northeast 283 326 10,700 -2,022 Descending Aus ATC (RADAR)
Fri 12:33:36 AM -16.7468 145.4611 59° Northeast 261 300 8,900 -2,156 Descending Aus ATC (RADAR)
Fri 12:33:51 AM -16.7365 145.4768 55° Northeast 258 297 8,400 -1,395 Descending Aus ATC (RADAR)
Fri 12:35:02 AM -16.6959 145.5398 56° Northeast 210 242 6,900 -1,314 Descending Aus ATC (RADAR)
Fri 12:35:36 AM -16.6699 145.5603 37° Northeast 196 226 6,100 -1,224 Descending Aus ATC (RADAR)
Fri 12:35:51 AM -16.6607 145.5706 47° Northeast 193 222 5,900 -655 Descending Aus ATC (RADAR)
Fri 12:36:31 AM -16.6417 145.6017 57° Northeast 189 217 5,500 -884 Descending Aus ATC (RADAR)
Fri 12:37:26 AM -16.6432 145.6484 92° East 185 213 4,500 -1,133 Descending Aus ATC (RADAR)
Fri 12:38:01 AM -16.6724 145.6599 159° South 190 219 3,800 -867 Descending Aus ATC (RADAR)
Fri 12:38:56 AM -16.7147 145.6750 161° South 175 201 3,200 -776 Descending Aus ATC (RADAR)
Fri 12:39:26 AM -16.7369 145.6858 155° Southeast 177 204 2,700 -1,020 Descending Aus ATC (RADAR)
Fri 12:40:36 AM -16.7835 145.7060 157° South 151 174 1,500 -988 Descending Aus ATC (RADAR)
Fri 12:40:51 AM -16.7921 145.7097 157° South 143 165 1,300 -327 Descending Aus ATC (RADAR)
Fri 12:41:31 AM -16.8111 145.7185 156° South 111 128 1,200 -379 Descending Aus ATC (RADAR)
Fri 12:42:26 AM -16.8323 145.7284 156° South 92 106 700 -505 Descending Aus ATC (RADAR)
Fri 12:43:06 AM -16.8480 145.7355 156° South 92 106 400 -450 Descending Aus ATC (RADAR)

Login

Don't have an account? Register now (free) for customized features, flight alerts, and more!